Argus, CA

9:51 AM PDT on August 29, 2015 (GMT -0700)
Searles Valley | | Change Station
CLOSE
Current Station
Personal Weather Station
Location: Trona, CA
Elevation: 1696 ft
Nearby Weather Stations

Elev 1696 ft 35.77 °N, 117.38 °W | Updated 11 seconds ago

Clear
Clear
93.4 °F
Feels Like 89 °F
N
1.6
Wind Variable Wind from SSE
Gusts 6.0 mph

Today
High -- | Low -- °F
--% Chance of Precip.
Yesterday
High -- | Low -- °F
Precip. -- in
6:19 AM 7:21 PM
Full, 100% visible
Pressure 29.86 in
Visibility 10.0 miles
Clouds Clear
Heat Index 89 °F
Dew Point 39 °F
Humidity 15%
Rainfall 0.00 in
Snow Depth Not available.
UV 3 out of 12
Pollen 7.90 out of 12
Air Quality Not available.
Flu Activity Not available.
METAR KNID 291556Z AUTO 28004KT 10SM CLR 30/04 A2993 RMK AO2 SLP109 T03000039 $
Pressure 29.86 in
Visibility 10.0 miles
Clouds Clear
Heat Index 89 °F
Dew Point 39 °F
Humidity 15%
Rainfall 0.00 in
Snow Depth Not available.
UV 3 out of 12
Pollen 7.90 out of 12
Air Quality Not available.
Flu Activity Not available.
METAR KNID 291556Z AUTO 28004KT 10SM CLR 30/04 A2993 RMK AO2 SLP109 T03000039 $

10-Day Weather Forecast

×

Almanac

Astronomy

Aug. 29, 2015 Rise Set
Actual Time
Civil Twilight
Nautical Twilight
Astronomical Twilight
Moon
Length of Visible Light
Length of Day
Tomorrow will be .
, % of the Moon is Illuminated

Today's Extremes

State Highs State Lows

Community

WunderPhotos

Upload Photos

1,850,722 photos uploaded!

WunderBlogs® & News

Nearby

Air Quality

  Air Quality AQ Index Pollutant
Not available.

Snow Depth

Station Depth Elevation

Earthquake Activity

City Distance Mag. Time & Date
Minimum magnitude displayed is 2.5.

Coastal Water Temperatures

Place Temperature

Stations

Nearby Weather Stations

Station Location Temp. Windchill Dew Point Humidity Wind Precip. Elev Updated Type